Time;durP1;ratioP1;P1;durP2;ratioP2;P2;SDS_P1;SDS_P2;PMS_P1;PMS_P2;Temp;Humidity;BMP_temperature;BMP_pressure;BME280_temperature;BME280_humidity;BME280_pressure;Samples;Min_cycle;Max_cycle;Signal;HPM_P1;HPM_P2
2023/07/08 00:01:23;;;;;;;5.70;4.60;;;;;;;17.17;100.00;97544.17;110419;1242;58863;-66
2023/07/08 00:03:58;;;;;;;6.30;4.50;;;;;;;17.16;100.00;97543.59;110263;1243;70585;-64
2023/07/08 00:06:28;;;;;;;6.90;5.20;;;;;;;17.11;100.00;97544.56;110144;1241;69160;-66
2023/07/08 00:08:58;;;;;;;5.30;4.40;;;;;;;17.07;100.00;97543.89;110342;1241;68546;-66
2023/07/08 00:11:29;;;;;;;5.20;4.30;;;;;;;17.04;100.00;97545.98;110438;1241;58953;-67
2023/07/08 00:13:58;;;;;;;5.10;4.50;;;;;;;16.98;100.00;97549.02;110416;1242;58885;-66
2023/07/08 00:16:28;;;;;;;5.50;4.50;;;;;;;16.96;100.00;97548.52;110428;1242;69673;-65
2023/07/08 00:18:57;;;;;;;6.30;4.60;;;;;;;16.90;100.00;97550.16;110419;1242;69258;-65
2023/07/08 00:21:28;;;;;;;4.50;4.10;;;;;;;16.87;100.00;97552.95;110352;1242;68296;-65
2023/07/08 00:23:58;;;;;;;5.90;4.30;;;;;;;16.85;100.00;97556.47;110447;1242;58940;-65
2023/07/08 00:26:31;;;;;;;6.20;5.00;;;;;;;16.81;100.00;97557.59;110498;1243;59224;-65
2023/07/08 00:29:02;;;;;;;6.00;4.40;;;;;;;16.78;100.00;97555.84;110488;1242;69906;-64
2023/07/08 00:31:33;;;;;;;5.70;5.10;;;;;;;16.75;100.00;97553.68;110163;1245;68630;-64
2023/07/08 00:34:03;;;;;;;6.30;5.10;;;;;;;16.70;100.00;97554.64;110297;1242;68472;-64
2023/07/08 00:36:35;;;;;;;6.90;5.30;;;;;;;16.68;100.00;97554.88;110433;1242;58891;-64
2023/07/08 00:39:13;;;;;;;5.50;4.30;;;;;;;16.62;100.00;97551.20;110430;1242;58872;-65
2023/07/08 00:41:43;;;;;;;6.50;5.00;;;;;;;16.54;100.00;97552.48;110420;1242;70693;-65
2023/07/08 00:44:14;;;;;;;6.20;5.20;;;;;;;16.52;100.00;97555.29;110320;1241;68451;-64
2023/07/08 00:47:03;;;;;;;5.80;5.20;;;;;;;16.52;100.00;97557.30;110219;1243;68613;-64
2023/07/08 00:49:42;;;;;;;5.70;5.10;;;;;;;16.48;100.00;97555.94;110481;1240;58932;-64
2023/07/08 00:52:27;;;;;;;6.00;5.40;;;;;;;16.43;100.00;97558.69;110480;1240;58875;-65
2023/07/08 00:55:06;;;;;;;6.10;5.00;;;;;;;16.38;100.00;97562.29;110487;1241;68796;-64
2023/07/08 00:57:39;;;;;;;5.60;5.00;;;;;;;16.36;100.00;97565.65;110341;1241;68486;-66
2023/07/08 01:00:17;;;;;;;6.40;5.20;;;;;;;16.32;100.00;97567.84;110177;1245;69476;-64
2023/07/08 01:02:54;;;;;;;7.20;6.30;;;;;;;16.28;100.00;97567.08;110406;1241;58871;-64
2023/07/08 01:05:30;;;;;;;7.90;5.30;;;;;;;16.25;100.00;97567.36;110431;1241;58863;-64
2023/07/08 01:08:03;;;;;;;6.20;5.60;;;;;;;16.22;100.00;97565.86;110216;1243;70526;-66
2023/07/08 01:10:44;;;;;;;6.20;5.40;;;;;;;16.20;100.00;97567.67;110397;1242;68695;-64
2023/07/08 01:13:16;;;;;;;6.20;5.50;;;;;;;16.15;100.00;97572.73;110320;1242;69160;-64
2023/07/08 01:15:48;;;;;;;6.50;5.70;;;;;;;16.12;100.00;97570.71;110527;1242;58867;-64
2023/07/08 01:18:21;;;;;;;6.50;5.60;;;;;;;16.10;100.00;97574.55;110520;1241;58831;-65
2023/07/08 01:20:50;;;;;;;7.50;6.00;;;;;;;16.07;100.00;97573.11;110163;1241;70591;-65
2023/07/08 01:23:20;;;;;;;6.70;5.90;;;;;;;16.03;100.00;97574.83;110487;1242;69331;-65
2023/07/08 01:25:50;;;;;;;7.50;6.70;;;;;;;16.00;100.00;97574.59;110104;1245;69278;-65
2023/07/08 01:28:20;;;;;;;7.40;6.70;;;;;;;15.97;100.00;97576.63;110111;1241;58917;-65
2023/07/08 01:30:51;;;;;;;6.80;6.10;;;;;;;15.94;100.00;97581.30;110256;1241;58933;-65
2023/07/08 01:33:24;;;;;;;7.00;5.80;;;;;;;15.94;100.00;97581.84;110177;1241;71008;-65
2023/07/08 01:35:53;;;;;;;8.10;6.70;;;;;;;15.92;100.00;97584.52;110188;1241;68947;-65
2023/07/08 01:38:27;;;;;;;7.20;5.30;;;;;;;15.91;100.00;97585.50;110489;1240;68646;-65
2023/07/08 01:40:58;;;;;;;6.10;5.50;;;;;;;15.90;100.00;97585.18;110211;1244;58894;-65
2023/07/08 01:43:29;;;;;;;7.50;5.90;;;;;;;15.89;100.00;97585.27;110398;1248;58932;-65
2023/07/08 01:46:02;;;;;;;6.90;6.20;;;;;;;15.89;100.00;97587.59;110146;1241;70799;-65
2023/07/08 01:48:41;;;;;;;6.60;5.70;;;;;;;15.87;100.00;97589.35;110326;1243;69146;-66
2023/07/08 01:51:10;;;;;;;7.70;6.80;;;;;;;15.87;100.00;97588.88;110461;1242;69213;-66
2023/07/08 01:53:42;;;;;;;6.60;5.80;;;;;;;15.85;100.00;97589.17;110453;1242;58868;-66
2023/07/08 01:56:13;;;;;;;6.60;5.90;;;;;;;15.85;100.00;97588.98;110393;1241;58895;-66
2023/07/08 01:58:44;;;;;;;7.30;6.40;;;;;;;15.84;100.00;97588.54;110161;1244;70598;-64
2023/07/08 02:01:14;;;;;;;7.40;6.60;;;;;;;15.83;100.00;97588.30;110189;1245;69800;-65
2023/07/08 02:03:46;;;;;;;7.70;6.80;;;;;;;15.83;100.00;97587.48;110383;1241;69336;-66
2023/07/08 02:06:16;;;;;;;7.60;6.40;;;;;;;15.82;100.00;97587.25;110159;1244;58851;-64
2023/07/08 02:08:45;;;;;;;7.10;6.20;;;;;;;15.80;100.00;97585.91;110130;1241;58886;-66
2023/07/08 02:11:14;;;;;;;8.50;6.80;;;;;;;15.81;100.00;97585.71;110320;1244;70548;-65
2023/07/08 02:13:44;;;;;;;7.60;6.70;;;;;;;15.79;100.00;97582.99;110445;1242;69281;-63
2023/07/08 02:16:16;;;;;;;6.10;5.50;;;;;;;15.77;100.00;97581.12;110441;1242;68360;-65
2023/07/08 02:18:47;;;;;;;6.70;6.00;;;;;;;15.76;100.00;97580.68;110475;1244;59036;-65
2023/07/08 02:21:17;;;;;;;7.10;5.70;;;;;;;15.75;100.00;97579.86;110163;1240;58896;-64
2023/07/08 02:23:52;;;;;;;6.60;5.40;;;;;;;15.75;100.00;97578.48;110417;1242;71088;-63
2023/07/08 02:26:22;;;;;;;6.40;5.70;;;;;;;15.74;100.00;97575.43;110478;1242;69398;-64
2023/07/08 02:28:52;;;;;;;6.40;5.60;;;;;;;15.71;100.00;97577.65;110475;1242;69092;-64
2023/07/08 02:31:24;;;;;;;6.50;5.80;;;;;;;15.67;100.00;97575.88;110500;1242;58866;-65
2023/07/08 02:33:55;;;;;;;7.40;6.00;;;;;;;15.65;100.00;97573.27;110533;1241;58904;-64
2023/07/08 02:36:25;;;;;;;8.80;6.60;;;;;;;15.63;100.00;97570.27;110414;1241;70590;-65
2023/07/08 02:38:54;;;;;;;7.20;6.10;;;;;;;15.63;100.00;97571.17;110443;1242;69582;-65
2023/07/08 02:41:25;;;;;;;6.30;5.30;;;;;;;15.61;100.00;97573.38;110514;1242;69314;-64
2023/07/08 02:43:54;;;;;;;7.80;5.90;;;;;;;15.59;100.00;97579.54;110533;1242;58891;-64
2023/07/08 02:46:25;;;;;;;6.70;5.40;;;;;;;15.56;100.00;97575.60;110192;1245;58929;-65
2023/07/08 02:48:56;;;;;;;6.60;5.30;;;;;;;15.52;100.00;97580.20;110213;1241;70240;-65
2023/07/08 02:51:25;;;;;;;6.30;5.50;;;;;;;15.49;100.00;97577.88;110362;1243;69761;-65
2023/07/08 02:53:55;;;;;;;7.90;6.40;;;;;;;15.45;100.00;97583.28;110536;1241;68539;-64
2023/07/08 02:56:28;;;;;;;8.90;7.10;;;;;;;15.40;100.00;97582.48;110150;1245;58930;-65
2023/07/08 02:58:56;;;;;;;6.20;5.60;;;;;;;15.36;100.00;97589.02;110450;1243;58870;-65
2023/07/08 03:01:26;;;;;;;7.90;6.40;;;;;;;15.34;100.00;97589.17;110472;1242;69996;-64
2023/07/08 03:03:59;;;;;;;7.40;6.50;;;;;;;15.34;100.00;97589.25;110458;1240;68424;-65
2023/07/08 03:06:28;;;;;;;7.90;6.30;;;;;;;15.32;100.00;97591.49;110442;1242;68435;-65
2023/07/08 03:08:58;;;;;;;6.90;6.10;;;;;;;15.32;100.00;97591.66;110203;1245;58873;-65
2023/07/08 03:11:28;;;;;;;8.60;6.80;;;;;;;15.31;100.00;97593.85;110482;1241;58860;-66
2023/07/08 03:13:58;;;;;;;6.90;6.00;;;;;;;15.31;100.00;97594.91;110229;1245;70521;-66
2023/07/08 03:16:27;;;;;;;7.80;6.90;;;;;;;15.34;100.00;97597.65;110354;1242;69922;-66
2023/07/08 03:18:56;;;;;;;;;;;;;;;15.37;100.00;97601.29;110132;1244;69276;-66
2023/07/08 03:21:26;;;;;;;8.30;7.50;;;;;;;15.40;100.00;97606.04;110128;1241;58927;-66
2023/07/08 03:23:59;;;;;;;7.50;6.70;;;;;;;15.41;100.00;97602.77;110184;1241;58874;-66
2023/07/08 03:26:28;;;;;;;7.70;6.20;;;;;;;15.44;100.00;97597.30;110304;1242;71119;-66
2023/07/08 03:29:02;;;;;;;7.20;6.50;;;;;;;15.48;100.00;97593.57;110226;1241;69248;-65
2023/07/08 03:31:31;;;;;;;7.00;6.30;;;;;;;15.53;100.00;97592.44;110487;1241;69375;-63
2023/07/08 03:34:00;;;;;;;6.40;5.50;;;;;;;15.57;100.00;97593.09;110142;1245;58909;-66
2023/07/08 03:36:31;;;;;;;9.60;6.20;;;;;;;15.61;100.00;97591.88;110475;1242;58799;-65
2023/07/08 03:39:01;;;;;;;;;;;;;;;15.64;100.00;97589.69;110460;1242;70577;-64
2023/07/08 03:41:30;;;;;;;6.20;5.60;;;;;;;15.69;100.00;97592.61;110167;1242;69312;-66
2023/07/08 03:43:59;;;;;;;7.30;5.20;;;;;;;15.76;100.00;97595.10;110535;1242;69094;-65
2023/07/08 03:46:28;;;;;;;;;;;;;;;15.82;100.00;97593.02;110207;1244;58925;-65
2023/07/08 03:48:57;;;;;;;6.00;5.00;;;;;;;15.86;100.00;97595.95;110499;1241;58893;-66
2023/07/08 03:51:30;;;;;;;9.20;6.90;;;;;;;15.86;100.00;97592.65;110219;1244;70955;-66
2023/07/08 03:53:58;;;;;;;7.20;6.10;;;;;;;15.84;100.00;97593.18;110225;1243;69184;-65
2023/07/08 03:56:27;;;;;;;8.50;6.30;;;;;;;15.84;100.00;97593.34;110518;1241;69197;-66
2023/07/08 03:58:56;;;;;;;7.10;5.70;;;;;;;15.83;100.00;97596.06;110207;1241;58886;-66
2023/07/08 04:01:25;;;;;;;8.80;6.20;;;;;;;15.85;100.00;97598.20;110188;1245;58930;-65
2023/07/08 04:03:57;;;;;;;7.90;5.90;;;;;;;15.87;100.00;97598.65;110200;1241;70820;-64
2023/07/08 04:06:28;;;;;;;9.60;6.60;;;;;;;15.85;100.00;97598.04;110177;1245;68371;-65
2023/07/08 04:08:56;;;;;;;6.80;6.10;;;;;;;15.88;100.00;97600.00;110470;1241;69141;-65
2023/07/08 04:11:26;;;;;;;10.50;6.70;;;;;;;15.89;100.00;97601.29;110093;1242;543119;-66
2023/07/08 04:13:54;;;;;;;7.10;6.40;;;;;;;15.93;100.00;97606.69;110428;1245;58825;-66
2023/07/08 04:16:30;;;;;;;6.00;5.40;;;;;;;15.98;100.00;97606.07;110377;1240;70534;-64
2023/07/08 04:18:58;;;;;;;7.70;5.70;;;;;;;16.07;100.00;97604.20;110444;1242;69165;-66
2023/07/08 04:21:26;;;;;;;6.90;5.60;;;;;;;16.14;100.00;97605.46;110523;1240;69805;-66
2023/07/08 04:23:54;;;;;;;7.40;5.70;;;;;;;16.21;100.00;97603.76;110449;1242;58892;-66
2023/07/08 04:26:22;;;;;;;5.90;5.20;;;;;;;16.24;100.00;97608.45;110408;1242;58894;-65
2023/07/08 04:28:50;;;;;;;6.20;5.50;;;;;;;16.28;100.00;97609.33;110373;1242;71165;-64
2023/07/08 04:31:18;;;;;;;5.90;4.90;;;;;;;16.35;100.00;97609.25;110394;1241;69539;-65
2023/07/08 04:33:47;;;;;;;6.10;5.50;;;;;;;16.41;100.00;97611.27;110370;1241;68965;-65
2023/07/08 04:36:15;;;;;;;6.50;5.40;;;;;;;16.50;100.00;97614.85;110390;1242;58937;-64
2023/07/08 04:38:46;;;;;;;5.70;4.90;;;;;;;16.58;100.00;97614.37;110304;1242;58921;-64
2023/07/08 04:41:15;;;;;;;6.40;5.80;;;;;;;16.70;100.00;97615.06;110368;1242;70509;-64
2023/07/08 04:43:43;;;;;;;7.30;5.50;;;;;;;16.79;100.00;97615.24;110309;1241;69280;-64
2023/07/08 04:46:25;;;;;;;5.60;4.70;;;;;;;16.88;100.00;97612.45;110367;1242;69884;-64
2023/07/08 04:48:55;;;;;;;5.90;4.80;;;;;;;16.99;100.00;97615.83;110348;1241;58911;-64
2023/07/08 04:51:24;;;;;;;5.10;4.60;;;;;;;17.07;100.00;97617.40;110449;1240;58888;-65
2023/07/08 04:53:52;;;;;;;5.90;4.80;;;;;;;17.15;100.00;97618.52;110336;1242;70003;-65
2023/07/08 04:56:21;;;;;;;6.00;4.80;;;;;;;17.22;100.00;97621.90;110465;1241;69791;-65
2023/07/08 04:58:50;;;;;;;6.10;5.10;;;;;;;17.26;100.00;97626.48;110328;1242;69702;-64
2023/07/08 05:01:17;;;;;;;6.30;4.80;;;;;;;17.30;100.00;97627.58;110313;1242;58949;-64
2023/07/08 05:03:45;;;;;;;6.20;5.00;;;;;;;17.36;100.00;97625.48;110369;1243;58865;-64
2023/07/08 05:06:13;;;;;;;6.00;5.40;;;;;;;17.42;100.00;97627.56;110381;1243;71185;-64
2023/07/08 05:08:41;;;;;;;6.00;5.10;;;;;;;17.41;100.00;97625.71;110401;1242;69719;-64
2023/07/08 05:11:10;;;;;;;6.90;5.00;;;;;;;17.39;100.00;97632.92;110330;1242;69406;-64
2023/07/08 05:13:37;;;;;;;5.50;4.60;;;;;;;17.43;100.00;97635.38;110185;1241;58886;-65
2023/07/08 05:16:05;;;;;;;4.50;3.90;;;;;;;17.54;100.00;97636.94;110388;1242;59263;-65
2023/07/08 05:18:34;;;;;;;4.40;3.90;;;;;;;17.66;100.00;97634.91;110496;1243;70543;-65
2023/07/08 05:21:03;;;;;;;6.10;4.20;;;;;;;17.80;100.00;97633.02;110451;1242;69933;-64
2023/07/08 05:23:30;;;;;;;5.10;3.90;;;;;;;17.96;100.00;97629.96;110353;1242;70333;-64
2023/07/08 05:26:01;;;;;;;5.00;4.50;;;;;;;18.10;100.00;97631.10;110391;1242;58895;-64
2023/07/08 05:28:29;;;;;;;4.90;4.20;;;;;;;18.29;100.00;97635.64;110369;1240;58859;-64
2023/07/08 05:30:58;;;;;;;5.70;4.60;;;;;;;18.46;100.00;97636.23;110443;1240;71166;-64
2023/07/08 05:33:27;;;;;;;6.10;4.10;;;;;;;18.53;99.17;97640.61;110369;1242;69409;-64
2023/07/08 05:35:56;;;;;;;;;;;;;;;18.71;100.00;97639.84;110283;1243;69198;-64
2023/07/08 05:38:24;;;;;;;4.50;4.00;;;;;;;18.86;97.91;97646.02;110253;1242;58937;-64
2023/07/08 05:40:57;;;;;;;4.40;3.80;;;;;;;19.03;99.42;97650.88;110348;1242;58939;-65
2023/07/08 05:43:26;;;;;;;4.40;4.00;;;;;;;19.20;99.90;97650.04;110362;1241;69636;-64
2023/07/08 05:46:01;;;;;;;5.60;3.80;;;;;;;19.30;99.06;97646.51;110390;1242;69289;-64
2023/07/08 05:48:40;;;;;;;4.00;3.60;;;;;;;19.39;95.96;97648.22;110330;1243;69983;-66
2023/07/08 05:51:08;;;;;;;5.00;4.40;;;;;;;19.50;96.54;97647.91;110374;1241;58950;-64
2023/07/08 05:53:36;;;;;;;4.70;3.50;;;;;;;19.60;94.02;97645.48;110395;1242;58875;-65
2023/07/08 05:56:04;;;;;;;4.70;3.70;;;;;;;19.43;87.37;97648.52;110372;1242;71174;-64
2023/07/08 05:58:33;;;;;;;4.20;3.70;;;;;;;19.34;88.21;97652.41;110364;1243;69757;-64
2023/07/08 06:01:01;;;;;;;5.70;3.60;;;;;;;19.41;84.77;97649.45;110423;1240;69304;-66
2023/07/08 06:03:29;;;;;;;4.80;3.60;;;;;;;19.45;87.54;97651.85;110473;1243;58899;-65
2023/07/08 06:05:57;;;;;;;6.00;3.90;;;;;;;19.55;87.88;97652.16;110380;1243;58879;-64
2023/07/08 06:08:26;;;;;;;3.90;3.20;;;;;;;19.76;89.20;97652.48;110379;1242;70574;-64
2023/07/08 06:10:55;;;;;;;6.30;4.00;;;;;;;19.96;88.62;97650.88;110452;1242;69254;-64
2023/07/08 06:13:23;;;;;;;5.20;3.50;;;;;;;20.14;86.36;97643.95;110426;1246;68416;-65
2023/07/08 06:15:51;;;;;;;5.00;3.40;;;;;;;20.32;87.16;97645.20;110383;1242;58943;-66
2023/07/08 06:18:20;;;;;;;5.00;3.60;;;;;;;20.44;86.53;97646.14;110355;1242;58870;-65
2023/07/08 06:20:56;;;;;;;4.10;3.10;;;;;;;20.55;84.55;97642.16;110503;1241;71527;-65
2023/07/08 06:23:24;;;;;;;4.40;3.10;;;;;;;20.66;84.56;97638.77;110496;1242;69158;-66
2023/07/08 06:25:52;;;;;;;4.40;3.40;;;;;;;20.73;83.48;97637.11;110453;1241;69287;-65
2023/07/08 06:28:21;;;;;;;5.00;3.40;;;;;;;20.91;81.13;97639.17;110526;1242;58944;-65
2023/07/08 06:30:49;;;;;;;5.40;3.30;;;;;;;21.21;80.54;97641.48;110495;1242;58895;-66
2023/07/08 06:33:17;;;;;;;4.20;3.50;;;;;;;21.55;81.40;97640.02;110460;1242;70555;-66
2023/07/08 06:35:44;;;;;;;3.70;3.20;;;;;;;21.81;77.38;97636.79;110528;1242;67747;-66
2023/07/08 06:38:13;;;;;;;5.30;2.80;;;;;;;22.04;74.26;97637.17;110498;1242;68326;-66
2023/07/08 06:40:41;;;;;;;4.10;3.00;;;;;;;22.35;74.69;97635.84;110435;1242;58873;-65
2023/07/08 06:43:09;;;;;;;3.50;2.70;;;;;;;22.67;71.38;97635.67;110441;1244;58847;-65
2023/07/08 06:45:43;;;;;;;3.80;2.30;;;;;;;23.07;70.17;97636.20;110481;1242;70857;-63
2023/07/08 06:48:11;;;;;;;3.00;2.50;;;;;;;23.50;68.00;97633.45;110518;1242;69376;-65
2023/07/08 06:50:43;;;;;;;3.70;2.60;;;;;;;23.88;68.27;97639.76;110480;1241;69905;-65
2023/07/08 06:53:10;;;;;;;4.10;3.00;;;;;;;24.16;62.92;97638.21;110514;1241;58942;-66
2023/07/08 06:55:39;;;;;;;4.60;2.50;;;;;;;24.40;64.82;97634.21;110395;1242;58874;-65
2023/07/08 06:58:07;;;;;;;4.10;2.50;;;;;;;24.60;63.24;97636.30;110435;1249;70153;-65
2023/07/08 07:00:35;;;;;;;3.00;2.30;;;;;;;24.77;58.72;97634.73;110498;1242;69901;-66
2023/07/08 07:03:03;;;;;;;2.70;2.10;;;;;;;25.02;62.19;97636.81;110473;1242;68652;-64
2023/07/08 07:05:31;;;;;;;3.40;2.30;;;;;;;25.21;57.05;97638.00;110469;1242;58886;-66
2023/07/08 07:07:58;;;;;;;3.10;1.90;;;;;;;25.26;54.33;97640.73;110505;1242;58878;-66
2023/07/08 07:10:26;;;;;;;3.40;2.50;;;;;;;25.28;54.80;97640.59;110490;1241;71483;-64
2023/07/08 07:12:54;;;;;;;2.60;2.10;;;;;;;25.17;52.49;97640.73;110512;1242;69811;-63
2023/07/08 07:15:24;;;;;;;3.00;2.10;;;;;;;25.11;50.89;97639.95;110505;1243;69403;-66
2023/07/08 07:17:52;;;;;;;3.30;2.30;;;;;;;24.89;49.85;97639.73;110494;1241;59012;-65
2023/07/08 07:20:20;;;;;;;2.80;2.10;;;;;;;24.72;51.51;97641.80;110489;1242;59233;-65
2023/07/08 07:22:48;;;;;;;3.30;2.20;;;;;;;24.72;55.20;97651.05;110497;1241;70618;-65
2023/07/08 07:25:16;;;;;;;2.10;1.90;;;;;;;24.64;54.79;97649.39;110483;1242;69712;-66
2023/07/08 07:27:43;;;;;;;2.70;2.10;;;;;;;24.39;54.27;97654.98;110167;1241;69742;-64
2023/07/08 07:30:15;;;;;;;3.00;2.20;;;;;;;23.85;54.50;97656.14;110462;1241;59004;-64
2023/07/08 07:32:44;;;;;;;3.40;2.20;;;;;;;24.00;56.88;97667.11;110459;1242;58866;-65
2023/07/08 07:35:14;;;;;;;2.60;1.90;;;;;;;24.11;58.14;97666.45;110445;1241;71089;-65
2023/07/08 07:37:44;;;;;;;3.80;1.90;;;;;;;24.14;56.59;97665.20;110369;1241;69437;-64
2023/07/08 07:40:15;;;;;;;2.80;1.90;;;;;;;24.13;55.29;97663.41;110321;1242;69141;-64
2023/07/08 07:42:44;;;;;;;2.30;1.70;;;;;;;24.18;56.87;97667.11;110446;1243;58839;-64
2023/07/08 07:45:13;;;;;;;2.60;1.90;;;;;;;24.14;53.41;97668.41;110382;1242;58878;-64
2023/07/08 07:47:41;;;;;;;2.90;1.90;;;;;;;24.12;54.51;97668.54;110363;1242;70612;-65
2023/07/08 07:50:09;;;;;;;2.60;1.70;;;;;;;23.89;52.27;97674.19;110401;1242;69240;-64
2023/07/08 07:52:38;;;;;;;;;;;;;;;23.63;52.69;97676.52;110383;1241;68553;-64
2023/07/08 07:55:07;;;;;;;2.70;1.70;;;;;;;23.59;51.55;97673.97;110439;1241;58909;-66
2023/07/08 07:57:35;;;;;;;2.20;1.60;;;;;;;23.34;50.66;97673.08;110416;1242;58860;-66
2023/07/08 08:00:04;;;;;;;3.20;1.60;;;;;;;23.18;52.06;97672.98;110446;1241;71164;-64
2023/07/08 08:02:43;;;;;;;3.00;2.00;;;;;;;23.09;52.74;97671.38;110371;1242;69746;-64
2023/07/08 08:05:11;;;;;;;3.00;2.10;;;;;;;22.98;52.06;97673.00;110339;1245;68467;-64
2023/07/08 08:07:40;;;;;;;2.90;2.10;;;;;;;22.87;51.61;97673.86;110361;1241;58905;-64
2023/07/08 08:10:09;;;;;;;3.60;2.00;;;;;;;23.00;53.68;97674.73;110341;1244;58868;-65
2023/07/08 08:12:37;;;;;;;4.10;2.00;;;;;;;23.09;52.64;97673.98;110387;1240;71097;-63
2023/07/08 08:15:21;;;;;;;3.00;2.20;;;;;;;23.10;53.87;97673.29;110396;1243;69258;-66
2023/07/08 08:17:51;;;;;;;2.80;1.90;;;;;;;23.19;52.98;97672.91;110349;1242;68592;-67
2023/07/08 08:20:21;;;;;;;4.40;2.20;;;;;;;23.36;54.14;97674.65;110417;1240;58937;-65
2023/07/08 08:22:49;;;;;;;2.50;1.80;;;;;;;23.48;53.29;97670.66;110394;1243;58861;-66
2023/07/08 08:25:18;;;;;;;2.90;2.00;;;;;;;23.76;52.95;97670.19;110508;1244;70981;-64
2023/07/08 08:27:46;;;;;;;2.30;1.70;;;;;;;23.94;50.76;97673.95;110422;1249;69316;-64
2023/07/08 08:30:14;;;;;;;2.50;1.80;;;;;;;24.01;49.72;97668.63;110392;1244;69872;-64
2023/07/08 08:32:42;;;;;;;2.80;1.80;;;;;;;24.16;49.26;97670.64;110320;1241;58910;-65
2023/07/08 08:35:10;;;;;;;2.30;1.70;;;;;;;24.35;49.83;97670.95;110471;1246;58885;-64
2023/07/08 08:37:37;;;;;;;2.80;1.70;;;;;;;24.42;47.89;97668.85;110317;1243;71163;-65
2023/07/08 08:40:13;;;;;;;3.10;1.80;;;;;;;24.54;48.16;97670.95;110474;1242;69754;-65
2023/07/08 08:42:53;;;;;;;3.00;1.80;;;;;;;24.56;46.66;97674.05;110482;1242;69653;-65
2023/07/08 08:45:25;;;;;;;3.20;1.90;;;;;;;24.58;47.29;97671.52;110462;1243;58950;-65
2023/07/08 08:48:03;;;;;;;1.90;1.50;;;;;;;24.73;47.63;97674.59;110511;1245;58860;-65
2023/07/08 08:50:43;;;;;;;3.40;2.90;;;;;;;24.89;48.95;97679.07;110523;1241;70431;-65
2023/07/08 08:53:15;;;;;;;2.40;2.00;;;;;;;25.00;48.03;97680.61;110542;1241;70211;-65
2023/07/08 08:55:45;;;;;;;2.30;1.50;;;;;;;25.07;47.35;97675.36;110538;1242;69016;-66
2023/07/08 08:58:25;;;;;;;3.10;1.70;;;;;;;25.00;47.25;97678.56;110504;1249;58937;-64
2023/07/08 09:00:55;;;;;;;2.90;1.60;;;;;;;25.14;48.92;97679.81;110457;1242;58932;-64
2023/07/08 09:03:44;;;;;;;2.90;1.80;;;;;;;25.12;46.37;97680.14;110372;1241;71327;-64
2023/07/08 09:06:15;;;;;;;;;;;;;;;25.19;45.75;97678.73;110519;1249;69806;-66
2023/07/08 09:08:43;;;;;;;2.10;1.50;;;;;;;25.33;46.96;97683.12;110558;1241;69767;-64
2023/07/08 09:11:15;;;;;;;3.80;1.90;;;;;;;25.45;46.52;97676.96;110509;1245;58854;-64
2023/07/08 09:13:43;;;;;;;2.50;1.70;;;;;;;25.54;46.04;97674.69;110432;1242;58824;-64
2023/07/08 09:16:21;;;;;;;2.90;1.80;;;;;;;25.69;45.31;97673.23;110574;1243;69613;-65
2023/07/08 09:19:15;;;;;;;1.70;1.30;;;;;;;25.92;46.27;97674.84;110603;1243;69878;-66
2023/07/08 09:21:49;;;;;;;1.70;1.30;;;;;;;26.31;45.27;97675.45;110543;1243;69286;-66
2023/07/08 09:24:24;;;;;;;2.40;1.90;;;;;;;25.88;43.64;97678.02;110483;1243;58858;-66
2023/07/08 09:26:56;;;;;;;2.70;2.00;;;;;;;26.22;44.15;97678.77;110512;1242;58930;-65
2023/07/08 09:29:24;;;;;;;2.20;1.80;;;;;;;26.34;44.11;97675.89;110408;1242;71151;-65
2023/07/08 09:31:52;;;;;;;3.10;2.00;;;;;;;26.21;43.49;97675.63;110406;1247;69203;-65
2023/07/08 09:34:23;;;;;;;2.80;1.90;;;;;;;25.46;43.20;97669.52;110522;1240;68516;-65
2023/07/08 09:36:52;;;;;;;2.20;1.60;;;;;;;26.07;44.68;97676.65;110567;1241;58989;-66
2023/07/08 09:39:20;;;;;;;2.00;1.70;;;;;;;26.31;43.73;97670.73;110466;1244;58921;-66
2023/07/08 09:41:49;;;;;;;2.30;1.90;;;;;;;26.52;43.98;97677.95;110428;1241;70498;-67
2023/07/08 09:44:28;;;;;;;3.60;2.20;;;;;;;26.53;43.51;97675.67;110388;1244;69241;-67
2023/07/08 09:46:58;;;;;;;2.80;1.70;;;;;;;26.26;44.95;97680.33;110457;1242;69164;-62
2023/07/08 09:49:33;;;;;;;;;;;;;;;25.75;44.55;97676.02;110582;1241;58900;-64
2023/07/08 09:52:04;;;;;;;2.10;1.50;;;;;;;26.20;45.54;97676.17;110459;1242;58869;-65
2023/07/08 09:54:32;;;;;;;2.20;1.60;;;;;;;26.44;44.45;97678.09;110575;1242;70943;-65
2023/07/08 09:57:04;;;;;;;;;;;;;;;26.76;43.00;97671.50;110620;1242;69190;-65
2023/07/08 09:59:45;;;;;;;3.20;1.60;;;;;;;27.18;43.10;97666.90;110581;1242;69752;-64
2023/07/08 10:02:25;;;;;;;2.20;1.70;;;;;;;27.48;41.03;97668.34;110529;1240;58935;-65
2023/07/08 10:04:55;;;;;;;2.20;1.80;;;;;;;27.51;40.61;97665.88;110595;1241;58953;-65
2023/07/08 10:07:23;;;;;;;1.70;1.40;;;;;;;27.71;40.88;97666.21;110378;1243;71029;-65
2023/07/08 10:09:55;;;;;;;2.30;1.50;;;;;;;27.81;39.21;97669.52;110537;1242;69794;-65
2023/07/08 10:12:24;;;;;;;2.10;1.50;;;;;;;27.92;38.44;97665.58;110599;1242;70038;-65
2023/07/08 10:15:01;;;;;;;3.20;1.40;;;;;;;28.41;39.65;97663.95;110603;1241;58874;-65
2023/07/08 10:17:30;;;;;;;2.70;1.40;;;;;;;28.94;40.25;97658.52;110455;1242;58887;-66
2023/07/08 10:19:57;;;;;;;2.00;1.50;;;;;;;28.83;38.28;97657.98;110548;1241;71240;-67
2023/07/08 10:22:46;;;;;;;2.40;1.30;;;;;;;29.03;37.41;97658.81;110514;1240;69138;-66
2023/07/08 10:25:27;;;;;;;;;;;;;;;29.19;36.97;97652.92;110495;1243;69824;-65
2023/07/08 10:28:10;;;;;;;2.00;1.50;;;;;;;29.28;38.09;97651.57;110590;1242;58927;-65
2023/07/08 10:30:47;;;;;;;1.90;1.50;;;;;;;29.11;37.22;97649.00;110529;1243;58878;-65
2023/07/08 10:33:45;;;;;;;3.10;1.50;;;;;;;29.47;37.07;97644.96;110568;1242;70585;-65
2023/07/08 10:36:34;;;;;;;2.10;1.40;;;;;;;29.25;35.90;97647.73;110525;1242;69675;-65
2023/07/08 10:39:10;;;;;;;2.20;1.50;;;;;;;29.45;35.87;97644.09;110498;1241;69871;-66
2023/07/08 10:42:00;;;;;;;2.20;1.70;;;;;;;29.44;36.30;97643.91;110599;1242;58880;-66
2023/07/08 10:44:28;;;;;;;2.20;1.30;;;;;;;28.94;34.86;97643.65;110518;1241;58903;-65
2023/07/08 10:47:17;;;;;;;3.10;1.70;;;;;;;28.23;34.80;97643.38;110457;1242;71131;-65
2023/07/08 10:50:15;;;;;;;3.30;1.50;;;;;;;29.05;36.61;97639.91;110567;1241;69192;-65
2023/07/08 10:52:59;;;;;;;1.90;1.40;;;;;;;29.34;34.49;97636.34;110567;1241;68768;-65
2023/07/08 10:55:46;;;;;;;1.90;1.40;;;;;;;29.56;34.83;97633.27;110518;1243;58890;-65
2023/07/08 10:58:17;;;;;;;2.60;1.60;;;;;;;29.76;34.81;97625.85;110486;1242;58831;-65
2023/07/08 11:00:59;;;;;;;2.40;1.30;;;;;;;29.60;34.35;97622.70;110378;1250;69824;-66
2023/07/08 11:04:08;;;;;;;3.60;1.80;;;;;;;29.59;33.84;97622.25;110433;1242;69224;-66
2023/07/08 11:06:45;;;;;;;2.90;1.60;;;;;;;29.66;34.13;97620.25;110422;1244;69888;-64
2023/07/08 11:09:28;;;;;;;1.90;1.40;;;;;;;29.65;34.70;97615.27;110588;1242;58936;-64
2023/07/08 11:12:12;;;;;;;2.00;1.50;;;;;;;29.38;34.81;97616.49;110594;1249;58872;-66
2023/07/08 11:14:54;;;;;;;1.70;1.30;;;;;;;29.37;35.09;97613.67;110573;1241;70541;-65
2023/07/08 11:17:48;;;;;;;1.80;1.40;;;;;;;29.20;34.78;97613.44;110566;1242;69177;-65
2023/07/08 11:20:28;;;;;;;1.90;1.40;;;;;;;28.98;34.28;97607.11;110455;1246;68956;-64
2023/07/08 11:23:20;;;;;;;2.30;1.50;;;;;;;29.06;35.22;97605.64;110356;1242;58927;-64
2023/07/08 11:25:50;;;;;;;2.30;1.50;;;;;;;28.92;35.61;97606.22;110371;1242;58941;-66
2023/07/08 11:28:22;;;;;;;2.00;1.40;;;;;;;28.76;35.87;97606.04;110463;1242;70505;-65
2023/07/08 11:30:52;;;;;;;2.40;1.40;;;;;;;28.72;36.01;97606.98;110396;1242;69923;-66
2023/07/08 11:33:25;;;;;;;2.70;1.70;;;;;;;28.76;36.14;97606.36;110386;1242;69960;-65
2023/07/08 11:35:58;;;;;;;3.10;1.60;;;;;;;28.86;37.46;97607.05;110342;1241;58960;-67
2023/07/08 11:38:26;;;;;;;3.00;1.80;;;;;;;28.52;37.87;97600.39;110458;1242;58878;-67
2023/07/08 11:41:11;;;;;;;2.00;1.60;;;;;;;28.29;37.86;97601.58;110340;1242;70638;-66
2023/07/08 11:43:48;;;;;;;2.20;1.60;;;;;;;28.18;37.74;97603.20;110189;1245;69853;-66
2023/07/08 11:46:21;;;;;;;2.50;1.70;;;;;;;28.09;37.74;97606.94;110536;1242;69313;-67